createdAt,value
2023-03-02T00:01:31.799Z,2.11
2023-03-02T00:04:03.563Z,2.12
2023-03-02T00:06:34.765Z,2.05
2023-03-02T00:09:02.626Z,2.04
2023-03-02T00:11:31.821Z,2.03
2023-03-02T00:13:58.836Z,2.03
2023-03-02T00:16:26.528Z,2.02
2023-03-02T00:18:53.354Z,1.97
2023-03-02T00:21:20.236Z,1.96
2023-03-02T00:23:47.081Z,1.94
2023-03-02T00:26:14.021Z,1.95
2023-03-02T00:28:41.896Z,1.97
2023-03-02T00:31:09.299Z,1.98
2023-03-02T00:33:36.791Z,1.96
2023-03-02T00:36:04.022Z,1.97
2023-03-02T00:38:30.998Z,1.99
2023-03-02T00:40:59.553Z,1.99
2023-03-02T00:43:28.269Z,1.99
2023-03-02T00:45:57.068Z,1.97
2023-03-02T00:48:23.882Z,1.99
2023-03-02T00:50:51.095Z,1.97
2023-03-02T00:53:19.580Z,1.98
2023-03-02T00:55:55.702Z,1.97
2023-03-02T00:58:24.410Z,1.99
2023-03-02T01:00:53.396Z,1.98
2023-03-02T01:03:22.402Z,1.99
2023-03-02T01:05:49.774Z,1.98
2023-03-02T01:08:16.751Z,1.98
2023-03-02T01:10:44.075Z,1.98
2023-03-02T01:13:10.883Z,2.00
2023-03-02T01:15:37.782Z,1.99
2023-03-02T01:18:04.686Z,1.98
2023-03-02T01:20:31.680Z,1.94
2023-03-02T01:22:58.650Z,1.93
2023-03-02T01:25:26.948Z,1.96
2023-03-02T01:27:55.225Z,1.96
2023-03-02T01:30:22.131Z,1.91
2023-03-02T01:32:50.962Z,1.93
2023-03-02T01:35:18.215Z,1.91
2023-03-02T01:37:50.199Z,1.91
2023-03-02T01:40:17.269Z,1.90
2023-03-02T01:42:52.938Z,1.90
2023-03-02T01:45:52.259Z,1.87
2023-03-02T01:48:50.073Z,1.84
2023-03-02T01:51:26.309Z,1.84
2023-03-02T01:54:00.836Z,1.83
2023-03-02T01:56:34.826Z,1.83
2023-03-02T01:59:09.388Z,1.81
2023-03-02T02:01:39.900Z,1.83
2023-03-02T02:04:07.826Z,1.83
2023-03-02T02:06:39.768Z,1.83
2023-03-02T02:09:09.824Z,1.84
2023-03-02T02:11:37.037Z,1.85
2023-03-02T02:14:04.449Z,1.86
2023-03-02T02:16:35.326Z,1.86
2023-03-02T02:19:15.584Z,1.84
2023-03-02T02:21:43.227Z,1.84
2023-03-02T02:24:21.746Z,1.87
2023-03-02T02:26:54.714Z,1.86
2023-03-02T02:29:35.760Z,1.84
2023-03-02T02:32:07.243Z,1.84
2023-03-02T02:34:39.734Z,1.82
2023-03-02T02:37:14.289Z,1.84
2023-03-02T02:39:46.719Z,1.80
2023-03-02T02:42:19.844Z,1.83
2023-03-02T02:44:47.905Z,1.83
2023-03-02T02:47:20.605Z,1.78
2023-03-02T02:49:52.852Z,1.79
2023-03-02T02:52:23.637Z,1.79
2023-03-02T02:54:53.966Z,1.80
2023-03-02T02:57:24.774Z,1.80
2023-03-02T02:59:55.952Z,1.79
2023-03-02T03:02:26.336Z,1.81
2023-03-02T03:05:02.714Z,1.80
2023-03-02T03:07:32.970Z,1.81
2023-03-02T03:10:36.358Z,1.80
2023-03-02T03:13:03.233Z,1.80
2023-03-02T03:15:30.090Z,1.80
2023-03-02T03:17:58.540Z,1.81
2023-03-02T03:20:28.130Z,1.80
2023-03-02T03:22:55.346Z,1.83
2023-03-02T03:25:26.272Z,1.80
2023-03-02T03:27:54.801Z,1.85
2023-03-02T03:30:24.364Z,1.69
2023-03-02T03:32:52.009Z,1.87
2023-03-02T03:35:18.976Z,1.90
2023-03-02T03:37:48.665Z,1.91
2023-03-02T03:40:16.942Z,1.91
2023-03-02T03:42:45.378Z,1.90
2023-03-02T03:45:13.212Z,1.92
2023-03-02T03:47:41.664Z,1.92
2023-03-02T03:50:10.252Z,1.90
2023-03-02T03:52:37.755Z,1.91
2023-03-02T03:55:11.421Z,1.89
2023-03-02T03:57:38.859Z,1.90
2023-03-02T04:00:10.638Z,1.88
2023-03-02T04:02:42.161Z,1.88
2023-03-02T04:05:10.595Z,1.87
2023-03-02T04:07:39.601Z,1.94
2023-03-02T04:10:08.550Z,1.95
2023-03-02T04:12:42.294Z,1.96
2023-03-02T04:15:14.880Z,1.96
2023-03-02T04:17:43.643Z,1.95
2023-03-02T04:20:16.082Z,1.97
2023-03-02T04:22:47.139Z,1.96
2023-03-02T04:25:15.828Z,1.96
2023-03-02T04:27:42.629Z,1.98
2023-03-02T04:30:09.985Z,2.00
2023-03-02T04:32:36.893Z,1.99
2023-03-02T04:35:04.078Z,2.00
2023-03-02T04:37:31.368Z,1.98
2023-03-02T04:39:58.427Z,1.97
2023-03-02T04:42:25.165Z,1.98
2023-03-02T04:44:52.000Z,1.99
2023-03-02T04:47:18.809Z,1.97
2023-03-02T04:49:45.602Z,1.99
2023-03-02T04:52:12.385Z,1.95
2023-03-02T04:54:39.342Z,1.99
2023-03-02T04:57:06.140Z,1.97
2023-03-02T04:59:32.972Z,1.97
2023-03-02T05:02:00.958Z,1.95
2023-03-02T05:04:28.517Z,1.93
2023-03-02T05:06:55.315Z,1.92
2023-03-02T05:09:27.379Z,1.93
2023-03-02T05:11:55.552Z,1.89
2023-03-02T05:14:23.026Z,1.89
2023-03-02T05:16:50.072Z,1.87
2023-03-02T05:19:17.326Z,1.85
2023-03-02T05:21:44.781Z,1.83
2023-03-02T05:24:13.174Z,1.81
2023-03-02T05:26:40.804Z,1.78
2023-03-02T05:29:08.015Z,1.77
2023-03-02T05:31:41.861Z,1.71
2023-03-02T05:34:10.057Z,1.69
2023-03-02T05:36:37.621Z,1.63
2023-03-02T05:39:05.932Z,1.59
2023-03-02T05:41:33.031Z,1.56
2023-03-02T05:44:00.368Z,1.51
2023-03-02T05:46:27.587Z,1.48
2023-03-02T05:48:54.418Z,1.46
2023-03-02T05:51:21.197Z,1.46
2023-03-02T05:53:48.061Z,1.42
2023-03-02T05:56:14.922Z,1.40
2023-03-02T05:58:41.716Z,1.40
2023-03-02T06:01:14.791Z,1.41
2023-03-02T06:03:42.681Z,1.39
2023-03-02T06:06:14.354Z,1.40
2023-03-02T06:08:42.362Z,1.41
2023-03-02T06:11:09.308Z,1.39
2023-03-02T06:13:37.968Z,1.40
2023-03-02T06:16:05.568Z,1.36
2023-03-02T06:18:33.601Z,1.35
2023-03-02T06:21:00.323Z,1.36
2023-03-02T06:23:27.598Z,1.39
2023-03-02T06:25:54.583Z,1.43
2023-03-02T06:28:22.091Z,1.46
2023-03-02T06:30:49.976Z,1.49
2023-03-02T06:33:18.255Z,1.49
2023-03-02T06:35:45.746Z,1.51
2023-03-02T06:38:13.248Z,1.53
2023-03-02T06:40:40.250Z,1.58
2023-03-02T06:43:07.013Z,1.59
2023-03-02T06:45:34.117Z,1.62
2023-03-02T06:48:01.643Z,1.66
2023-03-02T06:50:28.785Z,1.66
2023-03-02T06:52:55.839Z,1.70
2023-03-02T06:55:22.635Z,1.73
2023-03-02T06:57:49.548Z,1.74
2023-03-02T07:00:17.874Z,1.78
2023-03-02T07:02:45.308Z,1.81
2023-03-02T07:05:13.248Z,1.88
2023-03-02T07:07:40.144Z,1.87
2023-03-02T07:10:08.037Z,1.90
2023-03-02T07:12:35.470Z,1.95
2023-03-02T07:15:02.311Z,1.99
2023-03-02T07:17:29.050Z,2.05
2023-03-02T07:19:55.786Z,2.10
2023-03-02T07:22:22.562Z,2.17
2023-03-02T07:24:49.285Z,2.23
2023-03-02T07:27:16.006Z,2.27
2023-03-02T07:29:42.767Z,2.32
2023-03-02T07:32:12.333Z,2.38
2023-03-02T07:34:39.635Z,2.47
2023-03-02T07:37:06.424Z,2.54
2023-03-02T07:39:33.203Z,2.59
2023-03-02T07:42:01.485Z,2.66
2023-03-02T07:44:29.412Z,2.75
2023-03-02T07:46:56.319Z,2.82
2023-03-02T07:49:23.118Z,2.89
2023-03-02T07:51:49.865Z,2.99
2023-03-02T07:54:16.631Z,3.03
2023-03-02T07:56:43.505Z,3.13
2023-03-02T07:59:12.169Z,3.21
2023-03-02T08:01:39.326Z,3.27
2023-03-02T08:04:06.184Z,3.36
2023-03-02T08:06:32.933Z,3.45
2023-03-02T08:09:03.100Z,3.54
2023-03-02T08:11:30.138Z,3.63
2023-03-02T08:14:01.165Z,3.73
2023-03-02T08:16:28.253Z,3.86
2023-03-02T08:18:56.891Z,3.98
2023-03-02T08:21:26.115Z,4.15
2023-03-02T08:23:53.250Z,4.25
2023-03-02T08:26:21.136Z,4.36
2023-03-02T08:28:48.330Z,4.45
2023-03-02T08:31:15.901Z,4.51
2023-03-02T08:33:46.400Z,4.59
2023-03-02T08:36:17.387Z,4.69
2023-03-02T08:38:44.715Z,4.76
2023-03-02T08:41:14.730Z,4.81
2023-03-02T08:43:42.174Z,4.90
2023-03-02T08:46:11.506Z,5.00
2023-03-02T08:48:38.625Z,5.11
2023-03-02T08:51:08.541Z,5.22
2023-03-02T08:53:38.751Z,5.27
2023-03-02T08:56:08.639Z,5.38
2023-03-02T08:58:35.415Z,5.45
2023-03-02T09:01:02.255Z,5.55
2023-03-02T09:03:29.026Z,5.70
2023-03-02T09:05:55.794Z,5.85
2023-03-02T09:08:22.526Z,5.97
2023-03-02T09:10:49.289Z,6.05
2023-03-02T09:13:16.111Z,6.14
2023-03-02T09:15:42.868Z,6.29
2023-03-02T09:18:09.698Z,6.43
2023-03-02T09:20:36.438Z,6.60
2023-03-02T09:23:03.193Z,6.73
2023-03-02T09:25:29.963Z,6.84
2023-03-02T09:27:56.704Z,6.99
2023-03-02T09:30:26.063Z,6.99
2023-03-02T09:32:53.365Z,7.23
2023-03-02T09:35:20.753Z,7.37
2023-03-02T09:37:49.922Z,7.57
2023-03-02T09:40:25.421Z,7.70
2023-03-02T09:43:04.309Z,7.78
2023-03-02T09:45:39.503Z,7.91
2023-03-02T09:48:14.816Z,8.00
2023-03-02T09:51:01.987Z,8.21
2023-03-02T09:53:43.010Z,8.29
2023-03-02T09:56:17.407Z,8.41
2023-03-02T09:58:54.175Z,8.58
2023-03-02T10:01:33.100Z,8.78
2023-03-02T10:04:18.489Z,9.02
2023-03-02T10:06:46.154Z,9.32
2023-03-02T10:09:13.615Z,9.57
2023-03-02T10:11:51.831Z,9.85
2023-03-02T10:14:26.338Z,10.08
2023-03-02T10:17:12.825Z,10.26
2023-03-02T10:19:44.600Z,10.36
2023-03-02T10:22:27.249Z,10.51
2023-03-02T10:25:00.921Z,10.60
2023-03-02T10:27:39.485Z,10.73
2023-03-02T10:30:18.479Z,10.84
2023-03-02T10:32:49.749Z,10.97
2023-03-02T10:35:26.134Z,11.04
2023-03-02T10:38:13.358Z,11.16
2023-03-02T10:40:45.822Z,11.32
2023-03-02T10:43:25.152Z,11.46
2023-03-02T10:46:07.809Z,11.51
2023-03-02T10:48:59.726Z,11.52
2023-03-02T10:51:30.980Z,11.55
2023-03-02T10:54:11.588Z,11.67
2023-03-02T10:56:42.006Z,11.80
2023-03-02T10:59:47.185Z,12.13
2023-03-02T11:02:19.292Z,12.30
2023-03-02T11:04:46.392Z,12.49
2023-03-02T11:07:19.853Z,12.62
2023-03-02T11:10:07.611Z,12.64
2023-03-02T11:12:37.567Z,12.72
2023-03-02T11:15:36.137Z,12.82
2023-03-02T11:18:16.020Z,13.17
2023-03-02T11:20:47.632Z,13.36
2023-03-02T11:23:36.570Z,13.57
2023-03-02T11:26:22.116Z,13.72
2023-03-02T11:29:04.533Z,13.87
2023-03-02T11:31:40.371Z,14.15
2023-03-02T11:34:22.357Z,14.59
2023-03-02T11:37:02.521Z,14.57
2023-03-02T11:39:50.000Z,14.68
2023-03-02T11:42:36.607Z,14.53
2023-03-02T11:45:27.451Z,14.84
2023-03-02T11:48:03.810Z,15.24
2023-03-02T11:50:34.175Z,15.09
2023-03-02T11:56:03.646Z,14.79
2023-03-02T11:58:32.639Z,15.16
2023-03-02T12:01:03.904Z,15.74
2023-03-02T12:03:30.673Z,16.15
2023-03-02T12:06:25.161Z,16.63
2023-03-02T12:09:08.123Z,17.09
2023-03-02T12:11:41.046Z,17.57
2023-03-02T12:14:41.245Z,17.92
2023-03-02T12:17:26.482Z,17.92
2023-03-02T12:20:06.838Z,17.73
2023-03-02T12:22:37.460Z,17.48
2023-03-02T12:25:08.379Z,17.30
2023-03-02T12:27:40.408Z,17.31
2023-03-02T12:30:24.641Z,17.64
2023-03-02T12:33:10.440Z,18.10
2023-03-02T12:35:39.451Z,18.32
2023-03-02T12:38:28.469Z,18.33
2023-03-02T12:41:12.912Z,18.61
2023-03-02T12:43:55.958Z,18.87
2023-03-02T12:46:34.759Z,19.14
2023-03-02T12:49:25.549Z,19.37
2023-03-02T12:52:02.123Z,19.69
2023-03-02T12:54:34.772Z,19.98
2023-03-02T12:57:21.182Z,20.17
2023-03-02T12:59:56.753Z,20.22
2023-03-02T13:02:35.810Z,20.35
2023-03-02T13:05:07.333Z,20.58
2023-03-02T13:07:42.145Z,20.89
2023-03-02T13:10:24.102Z,21.07
2023-03-02T13:12:51.044Z,21.00
2023-03-02T13:15:18.473Z,20.36
2023-03-02T13:17:53.466Z,19.84
2023-03-02T13:20:21.879Z,19.72
2023-03-02T13:22:49.139Z,19.78
2023-03-02T13:25:26.586Z,20.03
2023-03-02T13:27:56.193Z,19.97
2023-03-02T13:30:27.627Z,19.91
2023-03-02T13:33:01.038Z,19.75
2023-03-02T13:35:34.008Z,19.41
2023-03-02T13:38:14.218Z,19.31
2023-03-02T13:40:48.150Z,19.02
2023-03-02T13:43:30.633Z,19.07
2023-03-02T13:46:01.820Z,18.78
2023-03-02T13:48:30.180Z,18.82
2023-03-02T13:51:03.535Z,18.75
2023-03-02T13:53:35.017Z,18.28
2023-03-02T13:56:03.035Z,18.12
2023-03-02T13:58:34.181Z,18.23
2023-03-02T14:01:01.494Z,18.44
2023-03-02T14:03:31.171Z,18.64
2023-03-02T14:06:00.361Z,19.04
2023-03-02T14:08:27.428Z,19.41
2023-03-02T14:10:58.042Z,19.77
2023-03-02T14:13:41.849Z,20.03
2023-03-02T14:16:13.082Z,20.21
2023-03-02T14:18:43.350Z,20.17
2023-03-02T14:21:16.390Z,20.11
2023-03-02T14:23:46.653Z,20.07
2023-03-02T14:26:33.882Z,20.04
2023-03-02T14:29:05.797Z,19.99
2023-03-02T14:31:34.789Z,19.99
2023-03-02T14:34:02.347Z,19.59
2023-03-02T14:36:33.332Z,19.10
2023-03-02T14:39:05.636Z,18.57
2023-03-02T14:41:43.848Z,17.96
2023-03-02T14:44:15.222Z,17.30
2023-03-02T14:46:43.392Z,16.62
2023-03-02T14:49:11.504Z,16.00
2023-03-02T14:51:41.790Z,15.21
2023-03-02T14:54:14.745Z,14.70
2023-03-02T14:56:43.535Z,14.16
2023-03-02T14:59:15.456Z,13.60
2023-03-02T15:01:44.849Z,13.25
2023-03-02T15:04:13.518Z,12.95
2023-03-02T15:06:42.431Z,12.82
2023-03-02T15:09:11.405Z,12.54
2023-03-02T15:11:39.698Z,12.22
2023-03-02T15:14:06.523Z,12.00
2023-03-02T15:16:34.752Z,11.87
2023-03-02T15:19:01.979Z,11.56
2023-03-02T15:21:28.932Z,11.42
2023-03-02T15:23:56.122Z,11.32
2023-03-02T15:26:23.142Z,11.19
2023-03-02T15:28:52.385Z,11.23
2023-03-02T15:31:19.979Z,11.34
2023-03-02T15:33:47.027Z,11.39
2023-03-02T15:36:15.234Z,11.37
2023-03-02T15:38:43.678Z,11.41
2023-03-02T15:41:13.236Z,11.23
2023-03-02T15:43:41.460Z,11.03
2023-03-02T15:46:10.351Z,10.75
2023-03-02T15:48:37.715Z,10.68
2023-03-02T15:51:06.962Z,10.53
2023-03-02T15:53:39.876Z,10.34
2023-03-02T15:56:08.729Z,10.20
2023-03-02T15:58:35.749Z,10.14
2023-03-02T16:01:12.672Z,10.07
2023-03-02T16:03:42.310Z,9.86
2023-03-02T16:06:10.493Z,9.76
2023-03-02T16:08:39.071Z,9.74
2023-03-02T16:11:07.957Z,9.64
2023-03-02T16:13:35.379Z,9.63
2023-03-02T16:16:04.656Z,9.61
2023-03-02T16:18:32.178Z,9.53
2023-03-02T16:21:00.068Z,9.42
2023-03-02T16:23:29.186Z,9.26
2023-03-02T16:26:06.692Z,9.15
2023-03-02T16:28:33.597Z,9.15
2023-03-02T16:31:09.644Z,9.07
2023-03-02T16:33:37.181Z,9.00
2023-03-02T16:36:04.456Z,8.91
2023-03-02T16:38:34.672Z,8.86
2023-03-02T16:41:02.127Z,8.83
2023-03-02T16:43:29.330Z,8.81
2023-03-02T16:45:57.069Z,8.73
2023-03-02T16:48:24.677Z,8.68
2023-03-02T16:50:56.968Z,8.57
2023-03-02T16:53:24.880Z,8.47
2023-03-02T16:55:53.317Z,8.33
2023-03-02T16:58:23.954Z,8.27
2023-03-02T17:00:51.344Z,8.22
2023-03-02T17:03:19.789Z,8.18
2023-03-02T17:05:46.935Z,8.14
2023-03-02T17:08:16.539Z,8.07
2023-03-02T17:10:44.741Z,8.00
2023-03-02T17:13:15.596Z,7.95
2023-03-02T17:15:43.898Z,7.96
2023-03-02T17:18:11.375Z,7.99
2023-03-02T17:20:39.048Z,7.92
2023-03-02T17:23:06.233Z,7.84
2023-03-02T17:25:33.262Z,7.88
2023-03-02T17:28:00.058Z,7.85
2023-03-02T17:30:27.086Z,7.81
2023-03-02T17:32:54.311Z,7.83
2023-03-02T17:35:21.801Z,7.77
2023-03-02T17:37:49.760Z,7.78
2023-03-02T17:40:17.987Z,7.66
2023-03-02T17:42:44.979Z,7.60
2023-03-02T17:45:25.575Z,7.52
2023-03-02T17:47:54.320Z,7.48
2023-03-02T17:50:23.598Z,7.44
2023-03-02T17:52:50.649Z,7.39
2023-03-02T17:55:18.862Z,7.31
2023-03-02T17:57:46.056Z,7.19
2023-03-02T18:00:16.083Z,7.14
2023-03-02T18:02:47.574Z,7.07
2023-03-02T18:05:14.574Z,7.04
2023-03-02T18:07:42.142Z,6.96
2023-03-02T18:10:09.609Z,6.91
2023-03-02T18:12:36.840Z,6.83
2023-03-02T18:15:06.493Z,6.84
2023-03-02T18:17:33.415Z,6.83
2023-03-02T18:20:00.716Z,6.88
2023-03-02T18:22:27.665Z,6.85
2023-03-02T18:24:54.696Z,6.86
2023-03-02T18:27:21.803Z,6.83
2023-03-02T18:29:48.988Z,6.81
2023-03-02T18:32:16.042Z,6.73
2023-03-02T18:34:43.293Z,6.74
2023-03-02T18:37:10.295Z,6.71
2023-03-02T18:39:40.302Z,6.67
2023-03-02T18:42:07.687Z,6.61
2023-03-02T18:44:35.042Z,6.53
2023-03-02T18:47:05.588Z,6.52
2023-03-02T18:49:35.188Z,6.48
2023-03-02T18:52:05.948Z,6.39
2023-03-02T18:54:35.296Z,6.37
2023-03-02T18:57:03.961Z,6.27
2023-03-02T18:59:30.883Z,6.32
2023-03-02T19:01:59.021Z,6.28
2023-03-02T19:04:27.662Z,6.23
2023-03-02T19:06:56.274Z,6.22
2023-03-02T19:09:24.581Z,6.20
2023-03-02T19:11:54.362Z,6.17
2023-03-02T19:14:22.798Z,6.13
2023-03-02T19:16:50.046Z,6.11
2023-03-02T19:19:16.891Z,6.09
2023-03-02T19:21:44.486Z,6.06
2023-03-02T19:24:12.348Z,6.01
2023-03-02T19:26:39.505Z,5.99
2023-03-02T19:29:07.020Z,5.94
2023-03-02T19:31:34.308Z,5.85
2023-03-02T19:34:01.654Z,5.83
2023-03-02T19:36:28.615Z,5.80
2023-03-02T19:38:56.210Z,5.80
2023-03-02T19:41:23.141Z,5.76
2023-03-02T19:43:51.684Z,5.70
2023-03-02T19:46:19.980Z,5.65
2023-03-02T19:48:47.799Z,5.65
2023-03-02T19:51:16.652Z,5.60
2023-03-02T19:53:46.090Z,5.60
2023-03-02T19:56:14.775Z,5.54
2023-03-02T19:58:53.744Z,5.52
2023-03-02T20:01:24.164Z,5.49
2023-03-02T20:03:53.445Z,5.43
2023-03-02T20:06:25.016Z,5.40
2023-03-02T20:08:52.505Z,5.35
2023-03-02T20:11:24.066Z,5.38
2023-03-02T20:13:52.264Z,5.38
2023-03-02T20:16:23.324Z,5.38
2023-03-02T20:18:51.231Z,5.38
2023-03-02T20:21:19.939Z,5.41
2023-03-02T20:23:50.133Z,5.40
2023-03-02T20:26:17.696Z,5.39
2023-03-02T20:28:47.142Z,5.35
2023-03-02T20:31:17.475Z,5.39
2023-03-02T20:33:50.896Z,5.38
2023-03-02T20:36:29.536Z,5.37
2023-03-02T20:39:05.360Z,5.36
2023-03-02T20:41:32.671Z,5.35
2023-03-02T20:44:01.067Z,5.32
2023-03-02T20:46:33.925Z,5.30
2023-03-02T20:49:02.022Z,5.32
2023-03-02T20:51:30.893Z,5.27
2023-03-02T20:54:00.746Z,5.25
2023-03-02T20:56:28.694Z,5.20
2023-03-02T20:58:55.686Z,5.20
2023-03-02T21:01:24.012Z,5.18
2023-03-02T21:03:53.906Z,5.15
2023-03-02T21:06:22.626Z,5.10
2023-03-02T21:08:52.740Z,5.09
2023-03-02T21:11:21.844Z,5.06
2023-03-02T21:13:50.790Z,4.96
2023-03-02T21:16:30.438Z,4.94
2023-03-02T21:18:57.307Z,4.92
2023-03-02T21:21:40.400Z,4.90
2023-03-02T21:24:11.789Z,4.86
2023-03-02T21:26:39.561Z,4.83
2023-03-02T21:29:06.596Z,4.82
2023-03-02T21:31:33.741Z,4.77
2023-03-02T21:34:01.355Z,4.69
2023-03-02T21:36:29.708Z,4.60
2023-03-02T21:38:59.359Z,4.53
2023-03-02T21:41:26.254Z,4.46
2023-03-02T21:43:53.135Z,4.39
2023-03-02T21:46:23.483Z,4.40
2023-03-02T21:48:51.738Z,4.38
2023-03-02T21:51:18.819Z,4.38
2023-03-02T21:53:49.524Z,4.39
2023-03-02T21:56:24.001Z,4.38
2023-03-02T21:58:53.996Z,4.41
2023-03-02T22:01:21.533Z,4.39
2023-03-02T22:03:52.290Z,4.32
2023-03-02T22:06:26.573Z,4.28
2023-03-02T22:08:54.390Z,4.28
2023-03-02T22:11:24.770Z,4.26
2023-03-02T22:13:55.446Z,4.25
2023-03-02T22:16:24.494Z,4.24
2023-03-02T22:18:56.697Z,4.22
2023-03-02T22:21:43.453Z,4.18
2023-03-02T22:24:25.141Z,4.13
2023-03-02T22:27:19.506Z,4.16
2023-03-02T22:29:48.338Z,4.17
2023-03-02T22:32:25.618Z,4.14
2023-03-02T22:34:55.118Z,4.14
2023-03-02T22:37:29.174Z,4.12
2023-03-02T22:40:00.968Z,4.12
2023-03-02T22:42:30.889Z,4.08
2023-03-02T22:44:58.951Z,4.04
2023-03-02T22:47:28.633Z,4.00
2023-03-02T22:50:04.503Z,4.00
2023-03-02T22:52:39.818Z,3.96
2023-03-02T22:55:26.834Z,3.86
2023-03-02T22:57:53.701Z,3.77
2023-03-02T23:00:34.489Z,3.77
2023-03-02T23:03:01.470Z,3.78
2023-03-02T23:05:31.411Z,3.74
2023-03-02T23:08:18.022Z,3.73
2023-03-02T23:10:46.885Z,3.63
2023-03-02T23:13:15.944Z,3.52
2023-03-02T23:15:42.982Z,3.47
2023-03-02T23:18:26.348Z,3.44
2023-03-02T23:21:00.429Z,3.44
2023-03-02T23:23:27.945Z,3.39
2023-03-02T23:26:01.064Z,3.32
2023-03-02T23:28:29.468Z,3.23
2023-03-02T23:30:57.373Z,3.23
2023-03-02T23:33:24.380Z,3.20
2023-03-02T23:35:51.306Z,3.19
2023-03-02T23:38:18.199Z,3.23
2023-03-02T23:40:45.552Z,3.26
2023-03-02T23:43:12.396Z,3.26
2023-03-02T23:45:40.135Z,3.18
2023-03-02T23:48:07.303Z,3.19
2023-03-02T23:50:34.198Z,3.17
2023-03-02T23:53:01.673Z,3.14
2023-03-02T23:55:29.226Z,3.12
2023-03-02T23:57:56.412Z,3.13
